sensor_id;sensor_type;location;lat;lon;timestamp;temperature;humidity
23188;DHT22;11762;59.878;17.686;2023-05-10T00:45:03;7.60;99.90
23188;DHT22;11762;59.878;17.686;2023-05-10T00:47:30;7.60;99.90
23188;DHT22;11762;59.878;17.686;2023-05-10T00:49:58;7.50;99.90
23188;DHT22;11762;59.878;17.686;2023-05-10T00:52:26;7.60;99.90
23188;DHT22;11762;59.878;17.686;2023-05-10T00:54:53;7.60;99.90
23188;DHT22;11762;59.878;17.686;2023-05-10T00:57:21;7.50;99.90
23188;DHT22;11762;59.878;17.686;2023-05-10T00:59:48;7.50;99.90
23188;DHT22;11762;59.878;17.686;2023-05-10T01:02:17;7.50;99.90
23188;DHT22;11762;59.878;17.686;2023-05-10T01:04:44;7.50;99.90
23188;DHT22;11762;59.878;17.686;2023-05-10T01:07:11;7.40;99.90
23188;DHT22;11762;59.878;17.686;2023-05-10T01:09:38;7.40;99.90
23188;DHT22;11762;59.878;17.686;2023-05-10T01:12:05;7.40;99.90
23188;DHT22;11762;59.878;17.686;2023-05-10T01:14:34;7.30;99.90
23188;DHT22;11762;59.878;17.686;2023-05-10T01:17:02;7.30;99.90
23188;DHT22;11762;59.878;17.686;2023-05-10T01:19:31;7.30;99.90
23188;DHT22;11762;59.878;17.686;2023-05-10T01:22:06;7.20;99.90
23188;DHT22;11762;59.878;17.686;2023-05-10T01:25:11;7.20;99.90
23188;DHT22;11762;59.878;17.686;2023-05-10T01:27:57;7.20;99.90
23188;DHT22;11762;59.878;17.686;2023-05-10T01:30:54;7.10;99.90
23188;DHT22;11762;59.878;17.686;2023-05-10T01:33:35;7.10;99.90
23188;DHT22;11762;59.878;17.686;2023-05-10T01:36:05;7.00;99.90
23188;DHT22;11762;59.878;17.686;2023-05-10T01:38:42;7.00;99.90
23188;DHT22;11762;59.878;17.686;2023-05-10T01:41:14;6.80;99.90
23188;DHT22;11762;59.878;17.686;2023-05-10T01:43:53;6.70;99.90
23188;DHT22;11762;59.878;17.686;2023-05-10T01:46:27;6.60;99.90
23188;DHT22;11762;59.878;17.686;2023-05-10T01:48:57;6.50;99.90
23188;DHT22;11762;59.878;17.686;2023-05-10T01:51:35;6.50;99.90
23188;DHT22;11762;59.878;17.686;2023-05-10T01:54:03;6.50;99.90
23188;DHT22;11762;59.878;17.686;2023-05-10T01:56:33;6.50;99.90
23188;DHT22;11762;59.878;17.686;2023-05-10T01:59:05;6.50;99.90
23188;DHT22;11762;59.878;17.686;2023-05-10T02:01:36;6.50;99.90
23188;DHT22;11762;59.878;17.686;2023-05-10T02:04:05;6.50;99.90
23188;DHT22;11762;59.878;17.686;2023-05-10T02:06:34;6.50;99.90
23188;DHT22;11762;59.878;17.686;2023-05-10T02:09:02;6.50;99.90
23188;DHT22;11762;59.878;17.686;2023-05-10T02:11:30;6.50;99.90
23188;DHT22;11762;59.878;17.686;2023-05-10T02:13:58;6.50;99.90
23188;DHT22;11762;59.878;17.686;2023-05-10T02:16:27;6.50;99.90
23188;DHT22;11762;59.878;17.686;2023-05-10T02:18:59;6.50;99.90
23188;DHT22;11762;59.878;17.686;2023-05-10T02:21:29;6.50;99.90
23188;DHT22;11762;59.878;17.686;2023-05-10T02:23:59;6.50;99.90
23188;DHT22;11762;59.878;17.686;2023-05-10T02:26:29;6.50;99.90
23188;DHT22;11762;59.878;17.686;2023-05-10T02:28:57;6.50;99.90
23188;DHT22;11762;59.878;17.686;2023-05-10T02:31:25;6.50;99.90
23188;DHT22;11762;59.878;17.686;2023-05-10T02:33:53;6.50;99.90
23188;DHT22;11762;59.878;17.686;2023-05-10T02:36:22;6.50;99.90
23188;DHT22;11762;59.878;17.686;2023-05-10T02:38:52;6.50;99.90
23188;DHT22;11762;59.878;17.686;2023-05-10T02:41:20;6.50;99.90
23188;DHT22;11762;59.878;17.686;2023-05-10T02:43:50;6.50;99.90
23188;DHT22;11762;59.878;17.686;2023-05-10T02:46:17;6.60;99.90
23188;DHT22;11762;59.878;17.686;2023-05-10T02:48:45;6.60;99.90
23188;DHT22;11762;59.878;17.686;2023-05-10T02:51:15;6.70;99.90
23188;DHT22;11762;59.878;17.686;2023-05-10T02:53:45;6.80;99.90
23188;DHT22;11762;59.878;17.686;2023-05-10T02:56:20;7.00;99.90
23188;DHT22;11762;59.878;17.686;2023-05-10T02:58:48;7.20;99.90
23188;DHT22;11762;59.878;17.686;2023-05-10T03:01:16;7.40;99.90
23188;DHT22;11762;59.878;17.686;2023-05-10T03:03:43;7.40;99.90
23188;DHT22;11762;59.878;17.686;2023-05-10T03:06:10;7.40;99.90
23188;DHT22;11762;59.878;17.686;2023-05-10T03:08:37;7.30;99.90
23188;DHT22;11762;59.878;17.686;2023-05-10T03:11:28;7.40;99.90
23188;DHT22;11762;59.878;17.686;2023-05-10T03:14:08;7.40;99.90
23188;DHT22;11762;59.878;17.686;2023-05-10T03:16:42;7.40;99.90
23188;DHT22;11762;59.878;17.686;2023-05-10T03:19:16;7.30;99.90
23188;DHT22;11762;59.878;17.686;2023-05-10T03:21:50;7.40;99.90
23188;DHT22;11762;59.878;17.686;2023-05-10T03:24:21;7.40;99.90
23188;DHT22;11762;59.878;17.686;2023-05-10T03:26:54;7.50;99.90
23188;DHT22;11762;59.878;17.686;2023-05-10T03:29:23;7.60;99.90
23188;DHT22;11762;59.878;17.686;2023-05-10T03:31:52;7.90;99.90
23188;DHT22;11762;59.878;17.686;2023-05-10T03:34:23;8.40;99.90
23188;DHT22;11762;59.878;17.686;2023-05-10T03:36:50;8.70;99.90
23188;DHT22;11762;59.878;17.686;2023-05-10T03:39:17;8.90;99.90
23188;DHT22;11762;59.878;17.686;2023-05-10T03:41:45;8.90;99.90
23188;DHT22;11762;59.878;17.686;2023-05-10T03:44:13;8.90;99.90
23188;DHT22;11762;59.878;17.686;2023-05-10T03:46:40;8.90;99.90
23188;DHT22;11762;59.878;17.686;2023-05-10T03:49:07;8.80;99.90
23188;DHT22;11762;59.878;17.686;2023-05-10T03:51:34;8.80;99.90
23188;DHT22;11762;59.878;17.686;2023-05-10T03:54:01;8.80;99.90
23188;DHT22;11762;59.878;17.686;2023-05-10T03:56:28;8.90;99.90
23188;DHT22;11762;59.878;17.686;2023-05-10T03:58:55;8.90;99.90
23188;DHT22;11762;59.878;17.686;2023-05-10T04:01:24;8.90;99.90
23188;DHT22;11762;59.878;17.686;2023-05-10T04:03:51;8.80;99.90
23188;DHT22;11762;59.878;17.686;2023-05-10T04:06:18;8.90;99.90
23188;DHT22;11762;59.878;17.686;2023-05-10T04:08:45;9.00;99.90
23188;DHT22;11762;59.878;17.686;2023-05-10T04:11:12;9.10;99.90
23188;DHT22;11762;59.878;17.686;2023-05-10T04:13:39;9.10;99.90
23188;DHT22;11762;59.878;17.686;2023-05-10T04:16:06;9.20;99.90
23188;DHT22;11762;59.878;17.686;2023-05-10T04:18:35;9.20;99.90
23188;DHT22;11762;59.878;17.686;2023-05-10T04:21:02;9.30;99.90
23188;DHT22;11762;59.878;17.686;2023-05-10T04:23:29;9.40;99.90
23188;DHT22;11762;59.878;17.686;2023-05-10T04:25:59;9.60;99.90
23188;DHT22;11762;59.878;17.686;2023-05-10T04:28:27;9.70;99.90
23188;DHT22;11762;59.878;17.686;2023-05-10T04:31:00;9.80;99.90
23188;DHT22;11762;59.878;17.686;2023-05-10T04:33:27;9.90;99.90
23188;DHT22;11762;59.878;17.686;2023-05-10T04:35:56;10.00;99.90
23188;DHT22;11762;59.878;17.686;2023-05-10T04:38:24;10.10;99.90
23188;DHT22;11762;59.878;17.686;2023-05-10T04:40:51;10.10;99.90
23188;DHT22;11762;59.878;17.686;2023-05-10T04:43:18;10.20;99.90
23188;DHT22;11762;59.878;17.686;2023-05-10T04:45:45;10.30;99.90
23188;DHT22;11762;59.878;17.686;2023-05-10T04:48:13;10.40;99.90
23188;DHT22;11762;59.878;17.686;2023-05-10T04:50:39;10.50;99.90
23188;DHT22;11762;59.878;17.686;2023-05-10T04:53:08;10.70;99.90
23188;DHT22;11762;59.878;17.686;2023-05-10T04:55:35;11.10;99.90
23188;DHT22;11762;59.878;17.686;2023-05-10T04:58:02;11.50;99.90
23188;DHT22;11762;59.878;17.686;2023-05-10T05:00:30;11.70;99.90
23188;DHT22;11762;59.878;17.686;2023-05-10T05:02:57;11.90;99.90
23188;DHT22;11762;59.878;17.686;2023-05-10T05:05:24;12.50;99.90
23188;DHT22;11762;59.878;17.686;2023-05-10T05:07:51;12.80;99.90
23188;DHT22;11762;59.878;17.686;2023-05-10T05:10:20;13.20;99.90
23188;DHT22;11762;59.878;17.686;2023-05-10T05:12:47;13.70;99.90
23188;DHT22;11762;59.878;17.686;2023-05-10T05:15:14;14.10;99.90
23188;DHT22;11762;59.878;17.686;2023-05-10T05:17:42;14.00;99.90
23188;DHT22;11762;59.878;17.686;2023-05-10T05:20:10;14.10;99.90
23188;DHT22;11762;59.878;17.686;2023-05-10T05:22:37;14.40;99.90
23188;DHT22;11762;59.878;17.686;2023-05-10T05:25:05;15.00;99.90
23188;DHT22;11762;59.878;17.686;2023-05-10T05:27:33;15.30;99.90
23188;DHT22;11762;59.878;17.686;2023-05-10T05:30:01;15.50;99.90
23188;DHT22;11762;59.878;17.686;2023-05-10T05:32:28;15.30;99.90
23188;DHT22;11762;59.878;17.686;2023-05-10T05:34:54;16.00;99.90
23188;DHT22;11762;59.878;17.686;2023-05-10T05:37:22;15.70;99.90
23188;DHT22;11762;59.878;17.686;2023-05-10T05:39:50;15.20;99.90
23188;DHT22;11762;59.878;17.686;2023-05-10T05:42:17;15.40;99.90
23188;DHT22;11762;59.878;17.686;2023-05-10T05:44:46;15.60;99.90
23188;DHT22;11762;59.878;17.686;2023-05-10T05:47:13;16.30;99.90
23188;DHT22;11762;59.878;17.686;2023-05-10T05:49:40;16.30;99.90
23188;DHT22;11762;59.878;17.686;2023-05-10T05:52:07;16.50;99.90
23188;DHT22;11762;59.878;17.686;2023-05-10T05:54:34;16.40;99.90
23188;DHT22;11762;59.878;17.686;2023-05-10T05:57:01;16.20;99.90
23188;DHT22;11762;59.878;17.686;2023-05-10T05:59:28;16.30;99.90
23188;DHT22;11762;59.878;17.686;2023-05-10T06:01:56;16.80;99.90
23188;DHT22;11762;59.878;17.686;2023-05-10T06:04:24;17.40;99.90
23188;DHT22;11762;59.878;17.686;2023-05-10T06:06:51;17.10;99.90
23188;DHT22;11762;59.878;17.686;2023-05-10T06:09:18;17.50;99.90
23188;DHT22;11762;59.878;17.686;2023-05-10T06:11:45;18.00;99.90
23188;DHT22;11762;59.878;17.686;2023-05-10T06:14:12;18.30;99.40
23188;DHT22;11762;59.878;17.686;2023-05-10T06:16:39;18.20;99.70
23188;DHT22;11762;59.878;17.686;2023-05-10T06:19:07;18.20;99.90
23188;DHT22;11762;59.878;17.686;2023-05-10T06:21:35;18.30;99.60
23188;DHT22;11762;59.878;17.686;2023-05-10T06:24:02;18.50;99.60
23188;DHT22;11762;59.878;17.686;2023-05-10T06:26:29;18.80;99.40
23188;DHT22;11762;59.878;17.686;2023-05-10T06:28:56;18.70;99.40
23188;DHT22;11762;59.878;17.686;2023-05-10T06:31:23;18.80;98.60
23188;DHT22;11762;59.878;17.686;2023-05-10T06:33:51;18.60;98.50
23188;DHT22;11762;59.878;17.686;2023-05-10T06:36:19;18.70;99.00
23188;DHT22;11762;59.878;17.686;2023-05-10T06:38:47;18.90;98.70
23188;DHT22;11762;59.878;17.686;2023-05-10T06:41:14;19.00;98.60
23188;DHT22;11762;59.878;17.686;2023-05-10T06:43:41;19.20;98.80
23188;DHT22;11762;59.878;17.686;2023-05-10T06:46:08;19.10;97.80
23188;DHT22;11762;59.878;17.686;2023-05-10T06:48:35;18.80;98.60
23188;DHT22;11762;59.878;17.686;2023-05-10T06:51:03;18.60;98.00
23188;DHT22;11762;59.878;17.686;2023-05-10T06:53:31;18.50;99.10
23188;DHT22;11762;59.878;17.686;2023-05-10T06:55:58;18.30;99.00
23188;DHT22;11762;59.878;17.686;2023-05-10T06:58:25;18.60;99.30
23188;DHT22;11762;59.878;17.686;2023-05-10T07:00:52;19.30;98.00
23188;DHT22;11762;59.878;17.686;2023-05-10T07:03:19;19.10;98.70
23188;DHT22;11762;59.878;17.686;2023-05-10T07:05:46;19.10;98.30
23188;DHT22;11762;59.878;17.686;2023-05-10T07:08:13;18.90;98.50
23188;DHT22;11762;59.878;17.686;2023-05-10T07:10:41;19.40;97.70
23188;DHT22;11762;59.878;17.686;2023-05-10T07:13:08;19.50;98.00
23188;DHT22;11762;59.878;17.686;2023-05-10T07:15:36;18.90;99.10
23188;DHT22;11762;59.878;17.686;2023-05-10T07:18:03;18.90;98.60
23188;DHT22;11762;59.878;17.686;2023-05-10T07:20:32;18.10;98.50
23188;DHT22;11762;59.878;17.686;2023-05-10T07:22:59;17.60;99.40
23188;DHT22;11762;59.878;17.686;2023-05-10T07:25:25;17.50;99.50
23188;DHT22;11762;59.878;17.686;2023-05-10T07:27:54;17.50;99.90
23188;DHT22;11762;59.878;17.686;2023-05-10T07:30:21;17.50;99.90
23188;DHT22;11762;59.878;17.686;2023-05-10T07:32:48;17.10;99.90
23188;DHT22;11762;59.878;17.686;2023-05-10T07:35:16;16.90;99.90
23188;DHT22;11762;59.878;17.686;2023-05-10T07:37:43;17.00;99.90
23188;DHT22;11762;59.878;17.686;2023-05-10T07:40:10;17.10;99.90
23188;DHT22;11762;59.878;17.686;2023-05-10T07:42:37;17.30;99.90
23188;DHT22;11762;59.878;17.686;2023-05-10T07:45:07;17.40;99.70
23188;DHT22;11762;59.878;17.686;2023-05-10T07:47:34;17.20;99.70
23188;DHT22;11762;59.878;17.686;2023-05-10T07:50:01;17.00;99.80
23188;DHT22;11762;59.878;17.686;2023-05-10T07:52:28;17.00;99.90
23188;DHT22;11762;59.878;17.686;2023-05-10T07:54:55;17.10;99.70
23188;DHT22;11762;59.878;17.686;2023-05-10T07:57:22;17.20;99.70
23188;DHT22;11762;59.878;17.686;2023-05-10T07:59:49;17.30;99.90
23188;DHT22;11762;59.878;17.686;2023-05-10T08:02:17;17.50;99.60
23188;DHT22;11762;59.878;17.686;2023-05-10T08:04:45;17.60;99.10
23188;DHT22;11762;59.878;17.686;2023-05-10T08:07:12;17.70;99.70
23188;DHT22;11762;59.878;17.686;2023-05-10T08:09:39;17.80;99.90
23188;DHT22;11762;59.878;17.686;2023-05-10T08:12:06;17.90;99.70
23188;DHT22;11762;59.878;17.686;2023-05-10T08:14:33;18.00;99.20
23188;DHT22;11762;59.878;17.686;2023-05-10T08:17:02;18.00;98.10
23188;DHT22;11762;59.878;17.686;2023-05-10T08:19:30;18.00;98.10
23188;DHT22;11762;59.878;17.686;2023-05-10T08:21:57;18.10;98.50
23188;DHT22;11762;59.878;17.686;2023-05-10T08:24:24;18.00;97.90
23188;DHT22;11762;59.878;17.686;2023-05-10T08:26:51;18.10;97.90
23188;DHT22;11762;59.878;17.686;2023-05-10T08:29:18;18.00;98.60
23188;DHT22;11762;59.878;17.686;2023-05-10T08:31:45;18.10;97.90
23188;DHT22;11762;59.878;17.686;2023-05-10T08:34:12;18.30;99.00
23188;DHT22;11762;59.878;17.686;2023-05-10T08:36:41;18.30;98.00
23188;DHT22;11762;59.878;17.686;2023-05-10T08:39:08;18.20;97.40
23188;DHT22;11762;59.878;17.686;2023-05-10T08:41:36;18.30;99.40
23188;DHT22;11762;59.878;17.686;2023-05-10T08:44:08;18.50;99.00
23188;DHT22;11762;59.878;17.686;2023-05-10T08:46:37;18.60;99.30
23188;DHT22;11762;59.878;17.686;2023-05-10T08:49:06;18.50;96.20
23188;DHT22;11762;59.878;17.686;2023-05-10T08:51:36;18.50;97.70
23188;DHT22;11762;59.878;17.686;2023-05-10T08:54:08;18.50;97.40
23188;DHT22;11762;59.878;17.686;2023-05-10T08:56:36;18.50;97.00
23188;DHT22;11762;59.878;17.686;2023-05-10T08:59:03;18.60;96.80
23188;DHT22;11762;59.878;17.686;2023-05-10T09:01:31;18.70;97.00
23188;DHT22;11762;59.878;17.686;2023-05-10T09:03:59;18.80;97.30
23188;DHT22;11762;59.878;17.686;2023-05-10T09:06:26;18.70;96.80
23188;DHT22;11762;59.878;17.686;2023-05-10T09:08:54;18.80;96.00
23188;DHT22;11762;59.878;17.686;2023-05-10T09:11:23;18.80;96.20
23188;DHT22;11762;59.878;17.686;2023-05-10T09:13:51;18.80;94.50
23188;DHT22;11762;59.878;17.686;2023-05-10T09:16:19;18.70;95.00
23188;DHT22;11762;59.878;17.686;2023-05-10T09:18:46;18.80;95.90
23188;DHT22;11762;59.878;17.686;2023-05-10T09:21:13;18.80;95.90
23188;DHT22;11762;59.878;17.686;2023-05-10T09:23:42;18.70;95.10
23188;DHT22;11762;59.878;17.686;2023-05-10T09:26:10;18.70;95.60
23188;DHT22;11762;59.878;17.686;2023-05-10T09:28:51;18.90;96.00
23188;DHT22;11762;59.878;17.686;2023-05-10T09:31:19;19.00;95.20
23188;DHT22;11762;59.878;17.686;2023-05-10T09:33:47;19.00;95.40
23188;DHT22;11762;59.878;17.686;2023-05-10T09:36:15;18.90;94.60
23188;DHT22;11762;59.878;17.686;2023-05-10T09:38:46;18.80;94.40
23188;DHT22;11762;59.878;17.686;2023-05-10T09:41:17;18.90;93.50
23188;DHT22;11762;59.878;17.686;2023-05-10T09:43:44;18.80;94.30
23188;DHT22;11762;59.878;17.686;2023-05-10T09:46:13;18.80;93.60
23188;DHT22;11762;59.878;17.686;2023-05-10T09:48:45;19.00;95.90
23188;DHT22;11762;59.878;17.686;2023-05-10T09:51:19;19.10;95.00
23188;DHT22;11762;59.878;17.686;2023-05-10T09:53:46;19.00;94.20
23188;DHT22;11762;59.878;17.686;2023-05-10T09:56:13;19.10;94.80
23188;DHT22;11762;59.878;17.686;2023-05-10T09:58:40;19.20;95.80
23188;DHT22;11762;59.878;17.686;2023-05-10T10:01:12;19.20;94.20
23188;DHT22;11762;59.878;17.686;2023-05-10T10:03:42;19.10;93.10
23188;DHT22;11762;59.878;17.686;2023-05-10T10:06:09;19.00;93.80
23188;DHT22;11762;59.878;17.686;2023-05-10T10:08:36;19.10;94.70
23188;DHT22;11762;59.878;17.686;2023-05-10T10:11:03;19.10;94.20
23188;DHT22;11762;59.878;17.686;2023-05-10T10:13:31;19.10;94.90
23188;DHT22;11762;59.878;17.686;2023-05-10T10:15:58;19.30;93.70
23188;DHT22;11762;59.878;17.686;2023-05-10T10:18:27;19.30;94.90
23188;DHT22;11762;59.878;17.686;2023-05-10T10:20:55;19.30;95.10
23188;DHT22;11762;59.878;17.686;2023-05-10T10:23:22;19.20;94.00
23188;DHT22;11762;59.878;17.686;2023-05-10T10:25:49;19.10;94.30
23188;DHT22;11762;59.878;17.686;2023-05-10T10:28:24;19.20;94.00
23188;DHT22;11762;59.878;17.686;2023-05-10T10:30:55;19.30;96.20
23188;DHT22;11762;59.878;17.686;2023-05-10T10:33:39;19.50;94.00
23188;DHT22;11762;59.878;17.686;2023-05-10T10:36:07;19.40;94.60
23188;DHT22;11762;59.878;17.686;2023-05-10T10:41:29;19.40;93.30
23188;DHT22;11762;59.878;17.686;2023-05-10T10:44:25;19.50;94.50
23188;DHT22;11762;59.878;17.686;2023-05-10T10:46:59;19.70;93.90
23188;DHT22;11762;59.878;17.686;2023-05-10T10:49:27;19.70;93.70
23188;DHT22;11762;59.878;17.686;2023-05-10T10:52:23;19.80;93.50
23188;DHT22;11762;59.878;17.686;2023-05-10T10:54:58;19.60;93.40
23188;DHT22;11762;59.878;17.686;2023-05-10T10:57:27;19.60;93.40
23188;DHT22;11762;59.878;17.686;2023-05-10T11:03:04;19.80;93.90
23188;DHT22;11762;59.878;17.686;2023-05-10T11:05:38;19.90;92.90
23188;DHT22;11762;59.878;17.686;2023-05-10T11:08:19;20.00;94.50
23188;DHT22;11762;59.878;17.686;2023-05-10T11:11:05;20.10;94.00
23188;DHT22;11762;59.878;17.686;2023-05-10T11:13:34;20.00;93.10
23188;DHT22;11762;59.878;17.686;2023-05-10T11:16:15;20.10;92.60
23188;DHT22;11762;59.878;17.686;2023-05-10T11:18:53;19.80;91.70
23188;DHT22;11762;59.878;17.686;2023-05-10T11:21:23;19.80;92.90
23188;DHT22;11762;59.878;17.686;2023-05-10T11:23:51;19.90;93.60
23188;DHT22;11762;59.878;17.686;2023-05-10T11:26:21;19.90;92.00
23188;DHT22;11762;59.878;17.686;2023-05-10T11:28:52;19.80;92.30
23188;DHT22;11762;59.878;17.686;2023-05-10T11:31:20;20.00;92.90
23188;DHT22;11762;59.878;17.686;2023-05-10T11:33:49;20.00;92.60
23188;DHT22;11762;59.878;17.686;2023-05-10T11:36:17;20.00;92.50
23188;DHT22;11762;59.878;17.686;2023-05-10T11:38:46;20.00;92.90
23188;DHT22;11762;59.878;17.686;2023-05-10T11:41:17;19.90;91.20
23188;DHT22;11762;59.878;17.686;2023-05-10T11:43:47;19.80;92.80
23188;DHT22;11762;59.878;17.686;2023-05-10T11:46:17;19.90;92.50
23188;DHT22;11762;59.878;17.686;2023-05-10T11:48:47;19.80;91.80
23188;DHT22;11762;59.878;17.686;2023-05-10T11:51:19;19.90;92.70
23188;DHT22;11762;59.878;17.686;2023-05-10T11:53:49;19.90;92.00
23188;DHT22;11762;59.878;17.686;2023-05-10T11:56:16;19.90;92.80
23188;DHT22;11762;59.878;17.686;2023-05-10T11:58:44;20.00;93.10
23188;DHT22;11762;59.878;17.686;2023-05-10T12:01:12;20.00;92.80
23188;DHT22;11762;59.878;17.686;2023-05-10T12:03:40;20.00;91.10
23188;DHT22;11762;59.878;17.686;2023-05-10T12:06:07;19.90;92.10
23188;DHT22;11762;59.878;17.686;2023-05-10T12:08:35;20.10;92.00
23188;DHT22;11762;59.878;17.686;2023-05-10T12:11:08;19.90;91.50
23188;DHT22;11762;59.878;17.686;2023-05-10T12:13:38;19.80;93.30
23188;DHT22;11762;59.878;17.686;2023-05-10T12:16:13;20.10;91.70
23188;DHT22;11762;59.878;17.686;2023-05-10T12:18:40;20.00;91.80
23188;DHT22;11762;59.878;17.686;2023-05-10T12:21:09;20.00;91.70
23188;DHT22;11762;59.878;17.686;2023-05-10T12:23:37;19.80;90.50
23188;DHT22;11762;59.878;17.686;2023-05-10T12:26:06;19.60;90.90
23188;DHT22;11762;59.878;17.686;2023-05-10T12:28:33;19.80;91.60
23188;DHT22;11762;59.878;17.686;2023-05-10T12:31:01;19.80;91.10
23188;DHT22;11762;59.878;17.686;2023-05-10T12:33:35;19.80;91.40
23188;DHT22;11762;59.878;17.686;2023-05-10T12:36:05;19.60;91.40
23188;DHT22;11762;59.878;17.686;2023-05-10T12:38:33;19.80;92.70
23188;DHT22;11762;59.878;17.686;2023-05-10T12:41:02;19.80;91.50
23188;DHT22;11762;59.878;17.686;2023-05-10T12:43:31;19.80;91.50
23188;DHT22;11762;59.878;17.686;2023-05-10T12:45:58;19.80;90.80
23188;DHT22;11762;59.878;17.686;2023-05-10T12:48:30;19.90;90.80
23188;DHT22;11762;59.878;17.686;2023-05-10T12:50:59;20.00;91.10
23188;DHT22;11762;59.878;17.686;2023-05-10T12:53:26;19.90;91.00
23188;DHT22;11762;59.878;17.686;2023-05-10T12:55:53;19.70;90.50
23188;DHT22;11762;59.878;17.686;2023-05-10T12:58:20;19.60;92.00
23188;DHT22;11762;59.878;17.686;2023-05-10T13:00:49;19.50;90.70
23188;DHT22;11762;59.878;17.686;2023-05-10T13:03:17;19.60;91.90
23188;DHT22;11762;59.878;17.686;2023-05-10T13:05:44;19.50;90.70
23188;DHT22;11762;59.878;17.686;2023-05-10T13:08:11;19.50;91.70
23188;DHT22;11762;59.878;17.686;2023-05-10T13:10:38;19.40;91.00
23188;DHT22;11762;59.878;17.686;2023-05-10T13:13:06;19.30;90.80
23188;DHT22;11762;59.878;17.686;2023-05-10T13:15:33;19.20;90.40
23188;DHT22;11762;59.878;17.686;2023-05-10T13:18:01;18.80;90.40
23188;DHT22;11762;59.878;17.686;2023-05-10T13:20:28;18.90;91.20
23188;DHT22;11762;59.878;17.686;2023-05-10T13:22:55;19.20;92.40
23188;DHT22;11762;59.878;17.686;2023-05-10T13:25:22;19.40;90.60
23188;DHT22;11762;59.878;17.686;2023-05-10T13:27:49;19.00;90.00
23188;DHT22;11762;59.878;17.686;2023-05-10T13:30:16;19.00;91.20
23188;DHT22;11762;59.878;17.686;2023-05-10T13:32:43;19.10;91.60
23188;DHT22;11762;59.878;17.686;2023-05-10T13:35:12;19.10;93.20
23188;DHT22;11762;59.878;17.686;2023-05-10T13:37:39;19.30;91.50
23188;DHT22;11762;59.878;17.686;2023-05-10T13:40:07;19.40;91.30
23188;DHT22;11762;59.878;17.686;2023-05-10T13:42:34;19.30;91.00
23188;DHT22;11762;59.878;17.686;2023-05-10T13:45:01;19.10;91.10
23188;DHT22;11762;59.878;17.686;2023-05-10T13:47:29;19.10;91.40
23188;DHT22;11762;59.878;17.686;2023-05-10T13:49:56;19.10;91.50
23188;DHT22;11762;59.878;17.686;2023-05-10T13:52:25;18.80;91.50
23188;DHT22;11762;59.878;17.686;2023-05-10T13:54:52;18.80;91.00
23188;DHT22;11762;59.878;17.686;2023-05-10T13:57:20;18.60;90.20
23188;DHT22;11762;59.878;17.686;2023-05-10T13:59:48;18.40;90.10
23188;DHT22;11762;59.878;17.686;2023-05-10T14:02:15;18.00;90.40
23188;DHT22;11762;59.878;17.686;2023-05-10T14:04:42;18.10;91.70
23188;DHT22;11762;59.878;17.686;2023-05-10T14:07:09;18.40;91.00
23188;DHT22;11762;59.878;17.686;2023-05-10T14:09:38;18.50;91.60
23188;DHT22;11762;59.878;17.686;2023-05-10T14:12:05;18.30;90.70
23188;DHT22;11762;59.878;17.686;2023-05-10T14:14:32;18.30;91.70
23188;DHT22;11762;59.878;17.686;2023-05-10T14:16:59;18.30;89.80
23188;DHT22;11762;59.878;17.686;2023-05-10T14:19:26;18.20;90.70
23188;DHT22;11762;59.878;17.686;2023-05-10T14:21:56;18.50;91.90
23188;DHT22;11762;59.878;17.686;2023-05-10T14:24:23;18.50;88.60
23188;DHT22;11762;59.878;17.686;2023-05-10T14:26:51;18.30;88.20
23188;DHT22;11762;59.878;17.686;2023-05-10T14:29:19;18.20;89.20
23188;DHT22;11762;59.878;17.686;2023-05-10T14:31:46;18.20;89.60
23188;DHT22;11762;59.878;17.686;2023-05-10T14:34:13;18.30;88.70
23188;DHT22;11762;59.878;17.686;2023-05-10T14:36:40;18.30;90.70
23188;DHT22;11762;59.878;17.686;2023-05-10T14:39:08;18.60;90.30
23188;DHT22;11762;59.878;17.686;2023-05-10T14:41:35;18.60;90.00
23188;DHT22;11762;59.878;17.686;2023-05-10T14:44:04;18.30;88.00
23188;DHT22;11762;59.878;17.686;2023-05-10T14:46:31;18.40;90.40
23188;DHT22;11762;59.878;17.686;2023-05-10T14:49:00;18.40;89.80
23188;DHT22;11762;59.878;17.686;2023-05-10T14:51:27;18.30;89.10
23188;DHT22;11762;59.878;17.686;2023-05-10T14:53:54;18.20;90.60
23188;DHT22;11762;59.878;17.686;2023-05-10T14:56:21;18.40;90.10
23188;DHT22;11762;59.878;17.686;2023-05-10T14:58:50;18.50;91.00
23188;DHT22;11762;59.878;17.686;2023-05-10T15:01:18;18.40;90.40
23188;DHT22;11762;59.878;17.686;2023-05-10T15:03:45;18.00;90.40
23188;DHT22;11762;59.878;17.686;2023-05-10T15:06:14;18.20;91.00
23188;DHT22;11762;59.878;17.686;2023-05-10T15:08:41;18.10;90.50
23188;DHT22;11762;59.878;17.686;2023-05-10T15:11:09;17.90;89.60
23188;DHT22;11762;59.878;17.686;2023-05-10T15:13:35;18.00;90.20
23188;DHT22;11762;59.878;17.686;2023-05-10T15:16:02;18.10;91.00
23188;DHT22;11762;59.878;17.686;2023-05-10T15:18:31;17.80;89.10
23188;DHT22;11762;59.878;17.686;2023-05-10T15:20:58;17.70;89.90
23188;DHT22;11762;59.878;17.686;2023-05-10T15:23:25;17.50;88.70
23188;DHT22;11762;59.878;17.686;2023-05-10T15:25:52;17.40;89.90
23188;DHT22;11762;59.878;17.686;2023-05-10T15:28:21;17.30;88.80
23188;DHT22;11762;59.878;17.686;2023-05-10T15:30:48;17.20;89.70
23188;DHT22;11762;59.878;17.686;2023-05-10T15:33:15;17.30;88.90
23188;DHT22;11762;59.878;17.686;2023-05-10T15:35:43;17.20;90.10
23188;DHT22;11762;59.878;17.686;2023-05-10T15:38:10;17.10;90.10
23188;DHT22;11762;59.878;17.686;2023-05-10T15:40:37;17.10;90.70
23188;DHT22;11762;59.878;17.686;2023-05-10T15:43:04;17.20;90.20
23188;DHT22;11762;59.878;17.686;2023-05-10T15:45:32;17.20;90.00
23188;DHT22;11762;59.878;17.686;2023-05-10T15:47:59;17.00;90.00
23188;DHT22;11762;59.878;17.686;2023-05-10T15:50:26;16.90;89.50
23188;DHT22;11762;59.878;17.686;2023-05-10T15:52:55;16.80;89.30
23188;DHT22;11762;59.878;17.686;2023-05-10T15:55:22;16.80;90.20
23188;DHT22;11762;59.878;17.686;2023-05-10T15:57:49;16.90;89.10
23188;DHT22;11762;59.878;17.686;2023-05-10T16:00:16;16.70;88.90
23188;DHT22;11762;59.878;17.686;2023-05-10T16:02:43;16.60;88.40
23188;DHT22;11762;59.878;17.686;2023-05-10T16:05:10;16.60;89.50
23188;DHT22;11762;59.878;17.686;2023-05-10T16:07:38;16.60;89.10
23188;DHT22;11762;59.878;17.686;2023-05-10T16:10:09;16.60;89.50
23188;DHT22;11762;59.878;17.686;2023-05-10T16:12:37;16.60;88.60
23188;DHT22;11762;59.878;17.686;2023-05-10T16:15:05;16.40;90.60
23188;DHT22;11762;59.878;17.686;2023-05-10T16:17:32;16.40;89.50
23188;DHT22;11762;59.878;17.686;2023-05-10T16:19:59;16.40;90.30